SMRA10 UAOL 161500
AAXX 16151
11001 35/// /1002 10172 20079 39476 40180 55000 333 55300=
11008 35/// /1602 10182 20078 39495 40182 55001 333 55300=
11010 15782 23601 10211 20086 39820 40180 55003 60005 333 81856=
11012 32884 40301 10201 20070 39733 40182 56004 81580 333 55300=
11018 35/// /0802 10207 20096 39876 40182 56003 333 55300=
11019 42668 21104 10165 20083 39495 40191 57002 81831 333 81835=
11020 35/// /1302 10181 20076 39603 40183 52001 333 55300=
11021 35/// /1202 10179 20075 39551 40190 55000 333 55300=
11022 35/// /1203 10184 20087 39822 40194 55001 333 55300=
11024 35/// /0702 10133 20077 39108 48539 53001 333 55300=
11025 35/// /1202 10188 20080 39530 40180 53001 333 55300=
11027 35/// /1305 10190 20085 39955 40195 58004 333 55300=
11030 42975 10604 10199 20094 39985 40191 58004 81040 333 81363=
11032 35/// /1504 10193 20066 39964 40205 55000 333 55300=
11034 35/// /1204 10198 20078 39990 40198 55002 333 55300=
11035 32778 11205 10188 20085 39954 40198 57002 81531 333 55300 81650=
11036 15964 11407 10186 20069 39986 40200 55001 60005 333 81360 90730 91113=
11037 35/// /1304 10195 20062 30021 40201 55001 333 55300=
11040 35/// /1206 10192 20090 39965 40198 55003 333 55300=
11051 35/// /3001 10208 20092 39730 40175 56005 333 55300=
11053 35/// /3101 10198 20075 39686 40179 55002 333 55300=
11055 35/// /3201 10208 20086 39819 40180 56004 333 55300=
11059 35/// /1301 10187 20068 39820 40184 55004 333 55300=
11060 35/// /2201 10203 20066 39877 40181 55003 333 55300=
11070 35/// /0802 10207 20098 39953 40190 57006 333 55300=
11075 35/// /1002 10204 20101 39949 40193 57005 333 55300=
11078 35/// /3503 10165 20104 39393 40186 54000 333 55300=
11080 35/// /1203 10194 20089 39933 40198 55001 333 55300=
11082 35/// /1103 10197 20104 39947 40205 55002 333 55300=
11083 35/// /1407 10164 20072 39669 40201 55001 333 55300=
11085 35/// /1305 10186 20078 30034 40206 55001 333 55300=
11101 45/// /3201 10182 20090 39666 40169 56005 333 55300=
11105 35/// /3601 10196 20078 39666 40166 55003 333 55300=
11110 35/// /0000 10090 21012 37948 48531 52001 333 55300=
11112 35/// /1502 10158 20048 39258 40175 56008 333 55300=
11119 35/// /1901 10168 20029 38860 48536 56004 333 55300=
11120 15883 23602 10198 20073 39493 40165 55008 60005 333 81857=
11121 35/// /2402 10201 20070 39504 40167 56009 333 55300=
11126 25/// /1709 10062 21007 37795 48536 56002 333 55300 69907=
11127 35/// /0000 10097 20010 38096 48533 53001 333 55300=
11130 35/// /0503 10208 20060 39605 40165 55008 333 55300=
11136 35/// /0000 10148 20062 39046 48535 55001 333 55300=
11138 32683 41906 10058 21001 37734 47129 55000 82131 333 55300 82833=
11140 35/// /2301 10150 20086 39465 40181 55002 333 55300=
11141 35/// /3101 10202 20065 39546 40169 56009 333 55300=
11148 35/// /1804 10147 20051 39008 48540 57002 333 55300=
11149 35/// /1703 10109 20015 38292 48538 55000 333 55300=
11150 15782 13603 10204 20083 39666 40174 55002 60005 333 81856=
11152 35/// /1401 10192 20091 39600 40178 55001 333 55300=
11153 35/// /1401 10184 20095 39625 40179 55001 333 55300=
11155 32482 41702 10116 20040 38415 48537 52001 84100 333 55300 84812=
11161 35/// /1801 10116 20065 38842 48543 55000 333 55300=
11170 32870 43102 10184 20075 39482 40179 55000 84030 333 55300=
11171 35/// /1703 10170 20068 39207 40180 55002 333 55300=
11180 35/// /1904 10109 20059 38487 48545 54000 333 55300=
11182 42780 21504 10211 20084 39863 40192 53001 81141 333 81850=
11190 32962 21006 10188 20087 39985 40199 55002 82030 333 55300 82360=
11192 35/// /1501 10164 20095 39900 40214 56002 333 55300=
11201 35/// /0601 10130 20058 38980 48544 55000 333 55300=
11204 35/// /1601 10163 20090 39434 40198 56006 333 55300=
11212 41/03 62309 10046 20042 37891 48548 50001 74142 84812 333 818// 84630 444 16100=
11213 35/// /1102 10141 20097 39640 40219 55005 333 55300=
11214 32980 72201 10101 20087 39036 48541 57006 83062 333 55300 83362 88507 85///=
11220 35/// /1904 10145 20078 39214 40204 56005 333 55300=
11225 35/// /2201 10130 20098 39391 40213 57009 333 55300=
11227 35/// /1502 10139 20094 39579 40215 56006 333 55300=
11229 35/// /0000 10129 20099 39747 40224 58006 333 55300=
11231 15467 63601 10133 20094 39663 40221 55006 60005 333 81618 83364 85080=
11232 35/// /2801 10117 20096 39599 40223 58005 333 55300=
11240 15768 53602 10150 20107 39783 40209 58003 60005 333 81856 85080=
11241 35/// /2101 10105 20065 38609 48545 55001 333 55300=
11244 35/// /1003 10150 20110 39896 40217 57002 333 55300=
11265 35/// /2409 10045 20037 37892 48550 52002 333 55300=
11272 35/// /1601 10138 20103 39582 40216 55005 333 55300=
11275 35/// /2403 10114 20091 39196 40220 58003 333 55300=
11280 35/// /1004 10151 20071 39270 40196 55003 333 55300=
11285 35/// /1301 10155 20100 39793 40210 58005 333 55300=
11290 35/// /1602 10159 20096 39766 40208 55002 333 55300=
11296 25/// /1101 10151 20101 39898 40211 58003 333 55300 69907=
11298 35/// /1801 10152 20105 39834 40211 56002 333 55300=
11301 35/// /0101 10202 20063 39358 40161 56005 333 55300=
11302 35/// /3502 10193 20096 39698 40166 55004 333 55300=
11304 35/// /2201 10138 20042 39015 48525 53001 333 55300=
11308 35/// /0101 10136 20026 38560 48529 53001 333 55300=
11312 35/// /0503 10137 20040 38455 48532 55002 333 55300=
11314 35/// /3305 10181 20052 39222 40168 55002 333 55300=
11316 35/// /2001 10032 21042 37247 47128 53003 333 55300=
11318 45/// /2103 10006 21053 36738 47122 52002 333 55300=
11325 35/// /0802 10210 20060 39560 40168 55005 333 55300=
11330 35/// /2302 10169 20078 39447 40179 55004 333 55300=
11331 35/// /1602 10132 20096 39691 40223 58007 333 55300=
11337 35/// /0202 10116 20033 38408 48535 54000 333 55300=
11340 35/// /0901 10096 21022 38081 48532 54000 333 55300=
11343 45/// /2705 11009 21012 37009 47124 52001 333 55300=
11346 35/// /3301 10139 20052 39114 48526 56005 333 55300=
11349 35/// /1903 10096 20043 38405 48544 50000 333 55300=
11350 35/// /3301 10206 20068 39693 40172 55003 333 55300=
11362 35/// /1503 10158 20083 39342 40193 55004 333 55300=
11365 35/// /2203 10172 20084 39420 40194 55005 333 55300=
11384 35/// /0301 10115 20064 38729 48542 55001 333 55300=
11385 35/// /1102 10150 20077 39135 48543 55000 333 55300=
11387 35/// /1305 10188 20083 39981 40199 55001 333 55300=
11389 35/// /0203 10209 20104 39871 40182 56006 333 55300=
11390 25/// /2202 10167 20097 39820 40215 53002 333 55300 69907=
11393 35/// /1503 10167 20098 39974 40210 50001 333 55300=
11395 35/// /1303 10179 20085 30068 40211 58002 333 55300=
11406 22975 41001 10178 20076 39617 40181 57002 84030 333 60005 84364 555 351// 50112 60107 70113 80112 90123=
11423 22982 52001 10179 20081 39329 42821 53001 85070 333 60005 85359 555 353// 50112 60110 70103 80109=
11457 22580 10301 10131 20069 38926 48537 55000 81400 333 60005 81825 555 366// 50115 60108 70100 80107=
11464 42970 11503 10148 20061 39237 42831 53005 81080 333 81360 555 356//=
11487 22680 29901 10187 20066 39583 40182 55002 81440 333 60005 81646 555 345// 50125 60119 70114 80127 90130=
11518 22975 11302 10185 20064 39761 40184 57002 81040 333 60005 81363 555 345//=
11520 22980 09901 10191 20066 39832 40185 55002 333 60005 555 344// 50168 60154 70142 80147 90154=
11546 27/80 /1103 10208 20079 39713 40175 57003 70010 333 60005 555 344// 50151 60135 70136 80134 90144=
11567 22970 00000 10194 20060 39856 40188 57002 333 60005 555 342// 50141=
11603 22981 01603 10172 20036 39723 40190 52003 333 60005 555 340// 50133 60131 70130 80132 90132=
11624 22970 11506 10204 20076 39909 40187 57001 81030 333 6///5 81365 555 344// 50165=
11636 22980 11304 10166 20077 39534 42832 55000 80002 333 60005 81080 555 356// 50156 60137 70129 80132 90136=
11652 22970 01604 10208 20063 39924 40191 53001 333 60005 555 339// 50162=
11659 22968 11606 10168 20072 39575 40193 55000 80002 333 60005 81070 555 353// 50127 60131 70109 80119 90130=
11669 22970 01706 10159 20055 39336 42823 54000 333 60005 91013 91113 555 350// 50133 60110 70112 80117 90119=
11679 22981 31703 10184 20063 39728 40197 52003 80004 333 60005 83070 91111 555 345// 50125 60123 70128 80127 90136=
11692 22970 31405 10166 20067 39648 40204 55000 80001 333 60005 83071 555 352// 50134=
11723 22980 11405 10184 20056 39916 40204 55001 81042 333 60005 81360 555 343// 50148 60144 70139 80141 90146=
11766 22981 21705 10154 20032 39344 42839 52001 81042 333 60005 81363 91112 555 344// 50116 60112 70110 80121=
11774 22682 41703 10184 20064 39945 40208 56004 81532 333 60005 81644 84360 555 345//=
11782 22980 42103 10202 20056 39905 40208 56002 84030 333 60005 84360 555 338// 50147 60139=
11787 22885 41609 10105 20019 38731 48553 50001 84042 333 60005 84358 91114 555 355// 50093 60093 70094 80100=
11801 42870 32003 10194 20036 39968 40214 57004 83030 333 83358 555 10217 335//=
11813 46/// /9902 10180 20069 39872 40208 57005=
11816 42970 21205 10189 20067 30054 40212 57006 81041 333 81360=
11819 46/// /1504 10185 20060 30011 40220 57003=
11826 42881 21603 10203 20059 30022 40214 57005 82031 333 82358=
11841 42983 49901 10178 20064 39852 40216 56003 84042 333 84363=
11855 42975 41306 10210 20028 30057 40216 57004 82041 333 82360=
11856 46/// /1206 10204 20040 39912 40218 57004=
11858 42680 51403 10197 20050 30074 40220 56004 81570 333 81647 85360=
11867 42981 31303 10204 20018 39912 40216 57003 83040 333 83360=
11880 42975 59901 10202 20043 30059 40224 56006 85040 333 85360=
11903 42981 52102 10191 20045 39858 40225 56004 83032 333 83360=
11916 42786 31610 10040 21014 38059 48550 58003 82082 333 82350=
11918 42984 32603 10159 20046 39420 42849 55000 82041 333 82361=
11927 42980 20000 10180 20039 39975 40229 57005 81032 333 81360=
11930 42588 29902 10058 21078 37459 47166 55000 82042 333 82330=
11933 42988 20000 10118 20023 38747 48566 54000 81082 333 81358=
11934 42984 12503 10171 20034 39421 42853 58001 81042 333 81363=
11938 42984 22205 10140 20016 39194 42851 56001 82041 333 82360=
11952 46/// /1903 10169 20025 39413 42853 54000=
11955 42980 01605 10196 20011 39866 40224 55002 555 10231 329//=
11958 46/70 /1906 10109 20001 38831 48559 55001 70000=
11968 42980 01901 10207 20021 39959 40229 56003=
11976 42982 01801 10195 20041 39974 40228 55003=
11978 42980 00000 10213 20040 30103 40228 56006=
11993 42980 09901 10212 20034 30011 40219 53002=
12105 42966 11601 10201 20090 30152 40193 54000 80002 333 91203=
12115 41957 20803 10158 20092 30180 40194 56001 71000 80002 333 91204=
12120 42966 20101 10157 20119 30194 40198 57001 80002 333 91202=
12125 45/79 /1601 10196 20092 30148 40195 56001 333 91202 91302=
12135 42965 01103 10146 20114 30197 40201 58001 333 91204=
12160 42970 12001 10176 20076 39987 40206 55000 80002 333 91204=
12185 42974 01203 10168 20074 30083 40215 58002 333 91204=
12195 42965 01101 10165 20077 30005 40226 55000 333 91202=
12200 42965 01601 10181 20097 30182 40189 53001 333 91202=
12205 42969 20501 10190 20118 30179 40188 55001 80002 333 91202=
12210 45/62 /1501 10200 20083 30127 40190 55000 333 91203 91302=
12215 47/// /1202 10181 20100 30026 40191 57003 7////=
12230 42980 31102 10201 20064 30107 40194 55001 82051 333 91203=
12235 42968 21902 10187 20066 39998 40202 55001 80002 333 91203=
12250 42968 21002 10188 20066 30121 40207 55001 81038 333 91203=
12270 42966 11102 10182 20076 30037 40213 58002 81030 333 91202=
12272 42970 01402 10187 20068 30049 40211 57002 333 91203=
12280 42970 01402 10152 20087 30068 40222 55001 333 91202=
12285 45/64 /0000 10194 20070 30109 40222 54000=
12295 42967 01401 10136 20092 30046 40230 55000 333 91203=
12300 42975 20902 10201 20053 30102 40189 53001 81032 333 91202=
12310 42970 11501 10205 20049 30123 40187 53001 81050 333 91203=
12330 42980 51103 10199 20069 30088 40193 56002 81032 333 91204=
12345 45/80 /1301 10196 20070 30064 40203 55001 333 91204 91302=
12360 46/// /1302 10197 20071 30079 40208 57002 333 91203 91302=
12375 42980 01203 10169 20065 30094 40221 53001 333 91203=
12385 42960 01501 10182 20061 30040 40225 53003 333 91203=
12399 42964 11302 10182 20064 30065 40229 55002 80001 333 91204=
12400 42975 10401 10194 20068 39960 40186 54000 81039 333 91202=
12415 42970 11903 10214 20065 30039 40186 55000 81030 333 91206=
12418 45/74 /1402 10209 20064 30079 40188 56001 333 91205 91303=
12424 42982 12004 10215 20070 30047 40189 55000 81032 333 91207=
12435 42970 51302 10203 20076 30034 40198 55003 81038 333 91204=
12455 42970 31703 10197 20053 39970 40204 53001 81032 333 91204=
12465 42970 11002 10193 20061 39997 40211 55002 80002 333 91203=
12469 42975 11101 10201 20061 39991 40214 55001 81032 333 91202=
12488 42970 01501 10175 20089 30073 40224 52002 333 91202=
12495 42970 00000 10176 20065 39943 40227 52001 333 91203=
12497 42970 01603 10187 20045 30016 40229 55001 333 91204=
12500 42980 11802 10195 20062 39786 40187 53006 81030 333 91205=
12510 42784 12308 10081 20034 38406 48525 53004 81030 333 91014 91118 91212=
12520 42972 11606 10187 20059 39778 40196 51005 81031 333 91110 91209=
12530 42970 71705 10220 20063 30009 40201 54000 85052 333 91109 91206=
12540 42978 51904 10212 20043 39965 40206 51001 85042 333 91207=
12550 45/68 /1801 10190 20047 39865 40212 55001 333 91203 91302=
12560 42970 50901 10199 20089 39883 40211 56003 82032 333 91203=
12566 42980 30403 10180 20074 39930 40215 55002 80002 333 91204=
12570 42980 11602 10191 20041 39912 40219 55000 80002 333 91202=
12575 45/61 /0902 10205 20037 39973 40218 55002 333 91202 91302=
12580 42980 02201 10200 20036 39969 40224 57001 333 91204=
12585 45/73 /2001 10182 20067 39967 40226 53001 333 91203 91302=
12595 42970 01802 10191 20044 39966 40229 54000 333 91204=
12600 42782 53301 10182 20054 39746 40214 55000 81532 333 91203=
12625 42981 40201 10156 20043 39244 42849 56001 81032 333 91202=
12650 42984 32005 10061 21018 38069 48562 58001 81038 333 91206=
12660 45/71 /3401 10196 20067 39870 40216 56003 333 91201 91301=
12670 42980 11803 10194 20024 39840 40228 55001 80002 333 91204=
12690 42981 12001 10200 20019 39737 40228 55000 81030 333 91203=
12695 47/// /9901 10215 20023 39901 40226 54000 700//=
12756 46/// /1601 10199 20036 30045 40226 56006 555 10034=
12766 46/// /0000 10174 20033 39869 40235 56003 555 10039=
12772 41975 01302 10205 20023 30037 40229 56005 70200 555 10030=
12786 46/// /2301 10209 20027 30107 40231 56006 555 10030=
12805 46/// /1606 10181 20092 30067 40208 58001 555 10056 55081=
12812 41965 51603 10160 20087 39976 40217 57002 70122 81046 555 10062=
12815 46/// /1504 10191 20059 30068 40212 57005 555 10042=
12822 46/// /1603 10190 20068 3//// 4//// 5//// 555 10045=
12830 46/// /1601 10169 20067 39891 40225 56005 555 10051=
12836 46/// /1401 10201 20065 30071 40218 56004 555 10041=
12843 41970 81001 10199 20052 30060 40225 57005 70022 8804/ 555 10038=
12846 46/// /1101 10201 20078 30093 40218 57005 555 10045=
12847 46/// /1102 10202 20047 30089 40220 57001 555 10036 55071=
12851 41975 21402 10125 20012 39079 42859 57003 70300 81032 555 10046=
12860 42970 21101 10219 20031 30117 40222 56007 80002 555 10029 /7588=
12866 46/// /0501 10216 20028 30122 40229 56008 555 10029=
12870 41880 21402 10200 20019 39966 40232 55003 70300 81105 333 81857 555 10030=
12882 41975 10000 10233 20016 30098 40224 57007 70200 80002 555 10024=
12892 46/// /0501 10215 20032 30060 40227 56007 555 10030=
12910 46/// /1601 10151 20105 39848 40220 52001 555 10074=
12915 46/// /1302 10151 20103 39932 40219 57001 555 10073=
12922 41960 80502 10148 20104 30074 40219 57004 70222 8801/ 555 10075 55073=
12925 46/// /1601 10174 20103 30053 40220 56002 555 10063=
12935 41965 70000 10164 20124 30092 40222 56004 70122 8707/ 555 10077=
12942 41965 81301 10190 20068 39981 40219 56003 70222 82087 555 10045=
12950 41980 71701 10214 20076 30102 40217 56005 70022 85072 555 10041=
12960 46/// /0000 10212 20085 30082 40214 56006 555 10044=
12970 42980 41201 10195 20044 30087 40222 56008 80002 555 10037 /7565=
12982 41970 31003 10228 20043 30122 40219 56007 70300 80002 555 10030=
12992 41982 10601 10225 20021 30119 40223 56006 70300 80002 555 10026=
13067 42960 41502 10216 20070 30095 40219 57008 80002=
13160 42960 71501 10206 20027 30109 40214 56005 80006=
13168 42970 51102 10220 20094 30110 40213 56003 80002=
13173 42970 31402 10235 20036 30115 40211 56005 80001=
13174 42970 31602 10227 20036 30118 40214 55007 81032=
13180 42970 01404 10226 20054 30112 40218 57004=
13183 42970 01505 10230 20017 30119 40219 57005 333 91010=
13266 42970 41901 10226 20070 30116 40212 56006 80001=
13269 42984 30601 10236 20074 30000 40204 56004 80002=
13272 32970 21203 10233 20069 30096 40210 57005 80001=
13274 42970 21202 10240 20068 30057 40210 57004 80001=
13278 42980 00901 10238 20072 39997 40210 56006 80001=
13279 42982 10502 10235 20036 30069 40209 55006 80001=
13285 42970 01104 10222 20023 30125 40224 56002=
13289 42980 01205 10126 20022 39053 48566 56002=
13295 42970 00000 10209 20088 30177 40230 57009=
13367 42970 20501 10165 20064 39051 48561 56005 80002=
13369 42683 11003 10184 20020 39036 48538 56003 81401=
13370 42970 11301 10212 20086 39843 40204 56007 80001=
13376 42980 01102 10222 20072 39953 40204 56006=
13378 42970 10902 10114 20037 38347 48575 56002 80002=
13383 42970 00502 10224 20053 30012 40206 55004=
13384 42970 01204 10230 21019 30069 40213 55002=
13388 42980 00602 10227 20061 39974 40211 55005=
13389 42970 02901 10221 20077 39932 40201 56010=
13397 42970 00902 10225 20056 39686 40199 55004=
13457 32970 10000 10234 20133 30188 40194 57006 80001=
13462 42670 21601 10251 20098 30148 40187 57005 81101 333 81840=
13489 42670 13002 10235 20051 39703 40194 55008 81500=
13493 42698 22102 10207 20062 39418 40197 55004 82800 333 82896=
13571 42998 00000 10225 20074 39672 40181 57008=
13575 42698 23401 10173 20083 3//// 4//// 56002 81501 333 81099 81696=
13576 42698 40903 10151 20047 3//// 4//// 5//// 84800 333 83896=
13577 42598 31802 10163 21040 38717 48546 56003 83500 333 83595=
13578 42598 20000 10191 20076 39333 48556 57008 81801 333 81895=
13580 42698 20000 10206 20108 3//// 4//// 5//// 82100 333 82896=
13581 42698 11802 10193 20097 39246 48540 58009 81100 333 81896=
13583 42698 11101 10223 20049 39523 40184 57007 81100 333 81896=
13585 42698 20000 10212 20081 39425 40181 56005 81102 333 81896 81099=
13586 32980 00000 10240 20063 39924 40200 57009=
13588 42997 11602 10240 20070 39848 40192 57008 80001=
13590 42998 00000 10186 20038 39232 48557 56005=
13591 42698 22902 10230 20072 39820 40194 57007 81101 333 81896=
13592 42998 00000 10230 20070 30051 40199 56012=
13594 42998 02502 10212 20068 39613 40200 57006=
13595 42698 10000 10250 20060 3//// 4//// 5//// 81100 333 81896=
13597 42998 00000 10270 20081 30125 40194 56010=
13598 42698 13202 10207 20044 39253 48554 56005 81100 333 81896=
13601 42965 22204 10000 21127 30062 40188 54001 80001=
13611 42960 43206 10250 20150 30096 40183 54000 80004=
13615 45981 /2603 10240 20132 30153 40197 52004 8////=
13623 42970 22704 10254 20028 30186 40191 57006 80004=
13624 42970 23206 10262 20104 30142 40179 57007 81011 333 81460=
13629 42964 13204 10204 20070 39161 42806 56005 81010 333 81460=
14240 41760 83501 10165 20117 30063 40215 56004 70262 8557/=
14241 41965 83101 10161 20123 30089 40216 56003 70262 8807/=
14284 42960 60502 10205 20089 30109 40213 56006 80008=
14307 41983 70702 10196 20134 30129 40204 56005 71422 85072 333 82359 99041=
14317 41670 82902 10181 20140 30107 40209 57007 70262 8557/ 333 85647 88458=
14431 42975 61901 10224 20123 30102 40200 56005 83032=
14444 42982 82402 10231 20117 30172 40197 56006 80007=
14445 42680 62402 10234 20112 30043 40191 58005 81205 333 81896 82299 83099 92311=
14474 42982 42903 10207 20139 30014 40199 56005 80006=
14528 42670 73401 10181 20129 39911 40199 56012 84570 333 84640 87460=
14537 42770 70000 10188 20132 30019 40204 56009 83550 333 83650 84356=
14542 41658 70201 10196 20109 30027 40210 55000 71022 81838 333 81847 81656 86364 95909=
14544 42670 50000 10206 20095 39560 40199 56005 83231 333 83843=
14549 46/// /3202 1//// 2//// 3//// 4//// 5////=
14554 41850 60601 10202 20094 39961 40223 56002 71044 85041 333 85357=
14557 42970 40901 10216 20093 39855 40207 56002 83032 333 83360=
14640 42670 63601 10216 20129 39384 48581 58002 83201 333 83833=
14648 42970 42501 10263 20127 30073 40187 56009 80001 333 84080=
14652 42480 60906 10078 20052 38008 48558 54000 85801 333 82810 83616 85070=
14654 42770 43001 10222 20082 39479 40187 56005 82506 333 82650=
15000 22997 01505 10211 20038 39942 40247 57010 333 55310 60007 91008 91109=
15004 22998 02902 10206 20052 39905 40229 56008 333 60007 91003 91103=
15007 23/// ///// 10194 20049 39785 40241 57004 333 60007=
15010 22999 01702 10224 20030 30082 40228 57006 333 60007 91003 91104=
15014 22998 02302 10227 20020 30008 40224 57007 333 60007 91002 91104=
15015 22999 11100 10217 20009 39646 42865 57006 80001 333 60007 91001 91102=
15020 22997 01603 10212 20050 30053 40244 57007 333 60007=
15023 22998 01205 10193 20047 39812 40225 57006 333 60007 91006 91108=
15025 23/// /1701 10225 20067 30114 40245 57007 333 60007 91002 91104=
15033 22998 02102 10110 21088 38293 48581 54000 333 55300 0//// 20109 3//// 60007 91007 91108 95000 95100=
15044 26/// /1202 10223 20011 30040 40229 57008 333 55304 0//// 20657 3//// 60007 91103=
15047 22998 01501 10192 20015 39805 40232 57006 333 55310 0//// 20679 3//// 60007 91002 91103=
15056 22997 01102 10206 20058 39906 40245 57007 333 55305 0//// 20447 3//// 60007 91003 91104=
15063 22997 01601 10214 20002 39883 40228 57006 333 60007 91002 91102=
15069 22999 02601 10200 21015 39181 42860 57006 333 60007 91001 91102=
15073 23/// /1302 10193 20043 39793 40248 57005 333 60007 91003 91104=
15083 22998 02202 10213 20011 39950 40222 57009 333 55308 0//// 20574 3//// 60007 91002 91104=
15085 22997 02500 10231 20012 39797 40220 57010 333 60007 91001 91102=
15088 22999 01406 10086 21055 38058 48581 54001 333 55310 0//// 20807 3//// 60007 91006 91107 95100=
15090 22997 11401 10229 20056 30159 40248 57007 80001 333 55308 00096 20622 30140 60007 91002 91104=
15094 22997 01101 10190 20058 39791 40257 57005 333 55300 0//// 20136 3//// 60007 91002 91103=
15099 22998 00301 10198 20005 39579 42860 56006 333 553// 60007 91002 91103=
15108 22999 02402 10113 20001 38186 48583 57002 333 55307 0//// 20512 3//// 60007 91003 91104 95100=
15109 22998 01203 10199 20040 39821 40243 57005 333 60007 91005 91105=
15111 23/// ///// 10223 20056 39982 40235 57008 333 60007=
15113 22997 01701 10233 20056 30083 40240 57007 333 55308 0//// 20603 3//// 60007 91002 91104=
15119 22999 02701 10099 20023 38232 48576 54001 333 60007 95100=
15120 22998 01302 10206 20025 39750 40227 57007 333 55310 00114 20729 30159 60007 91003 91104=
15143 26/// /1801 10204 20016 39736 40233 57008 333 55309 0//// 20632 3//// 60007 91103=
15150 22997 00000 10214 20063 30038 40244 57008 333 60007 91000 91101=
15154 22997 00702 10231 20047 30101 40238 57006 333 60007 91003 91104=
15163 25968 01300 10145 20012 38726 48583 58001 333 55309 0//// 20730 3//// 60007 91001 91103=
15170 22998 03501 10206 20024 39467 42862 57008 333 60007 91002 91102=
15194 22998 01500 10212 20068 39957 40241 57008 333 60007 91001 91102=
15197 22997 00702 10222 20060 30039 40242 57007 333 55306 0//// 20477 3//// 60007 91003 91105=
15200 22998 00200 10242 20017 30082 40220 57007 333 60007 91001 91102=
15219 23/// /2901 10229 20050 30108 40228 57008 333 55310 60007 91002 91103=
15230 22998 01201 10217 20024 39946 40227 57009 333 55310 00152 20833 30453 60007 91002 91102=
15260 22999 02401 10211 20034 39713 40227 57006 333 60007 91001 91103 95000=
15264 22997 03402 10225 20054 30176 40245 57009 333 60007 91004 91105=
15265 22998 00402 10230 20055 30166 40238 57008 333 55306 0//// 20479 3//// 60007 91003 91105=
15280 22599 21301 10055 21059 37599 47172 54001 82050 333 55304 0//// 20469 3//// 60007 91002 91105=
15292 22998 01403 10234 20031 39937 40218 55005 333 60007 91005 91106 95000=
15296 22970 01702 10196 20022 39527 42861 57004 333 55308 0//// 20654 3//// 60007 91005 91107 95000=
15297 26/// /3402 10130 20022 38733 48/// 57002 333 55303 0//// 20367 3//// 60007 91104=
15310 22998 00301 10215 20058 30151 40234 56006 333 55304 10023 20390 30199 60007 91002 91104=
15319 26/// /1800 10128 20050 39567 42/// 57004 333 55300 0//// 20104 3//// 60007 91101=
15320 22998 02202 10125 20021 38524 48573 57002 333 60007 91005 91106 95000 95100=
15335 22997 00802 10205 20085 30227 40233 56007 333 60007 91004 91106=
15336 25/62 /0602 10196 20113 30226 40228 57006 7000/ 333 55307 0//// 20538 3//// 60007=
15337 22997 00206 10182 20116 30028 40229 57008 333 60007=
15340 22997 02601 10227 20035 39992 40231 57010 333 60007 91001 91102=
15341 25/70 /0501 10213 20018 39927 40221 57007 7000/ 333 55310 0//// 20817 3//// 60007=
15344 22997 01701 10202 20022 39619 42868 57006 333 55309 0//// 20632 3//// 60007 91002 91104=
15346 22997 02301 10226 20052 39952 40229 57008 333 60007 91002 91102 95090=
15350 22997 00704 10219 20053 30122 40237 57008 333 60007 91006 91107=
15360 22997 00207 10177 20146 30212 40225 57008 333 60007 91009 91109 92427=
15369 22998 01701 10218 20042 39923 40233 57008 333 55310 0//// 20679 3//// 60007 91002 91103=
15387 26/// /0203 10182 20141 30222 40226 57008 333 55307 0//// 20549 3//// 60007=
15395 22998 01500 10221 20033 39908 40235 57010 333 60007 91001 91102=
15406 23/// /3002 10221 20089 30180 40226 57008 333 60007 91004 91106=
15408 23/// /0403 10211 20098 39965 40223 56005 333 55310 60007 91005 91106=
15409 23/// /1301 10188 20133 30182 40230 57007 333 55306 0//// 2//// 3//// 60007 91002 91106=
15410 22997 02601 10225 20040 30142 40234 57010 333 60007 91002 91103=
15412 26/// /0901 10203 20033 39871 40240 57008 333 55310 0//// 20810 3//// 60007 91105=
15420 22997 00501 10220 20058 30121 40229 57008 333 55308 0//// 20604 3//// 60007 91003 91105=
15428 22997 01401 10183 20153 30222 40226 57009 333 55306 10033 20478 30201 60007 91002 91104 92427=
15434 22997 00701 10216 20023 30030 40233 57011 333 60007 91003 91104=
15444 23/// /3403 10223 20093 30153 40221 56009 333 55310 60007 91005 91105=
15445 23/// /0102 10223 20095 30122 40226 57009 333 55309 60007 91003 91104=
15450 22997 01002 10214 20028 30004 40231 57009 333 55310 00206 20883 30189 60007 91003 91104=
15460 22997 00401 10220 20093 30203 40227 57009 333 60007 91002 91103=
15462 22997 00504 10216 20112 30140 40224 57007 333 60007 91005 91105=
15465 22997 01202 10220 20037 30161 40230 57011 333 55310 0//// 20845 3//// 60007 91004 91106=
15469 23/// /0601 10219 20027 30107 40233 57011 333 60007 91002 91103=
15470 22997 00401 10224 20050 30109 40230 57009 333 60007 91002 91103=
15479 22997 02401 10214 20107 30037 40224 57007 333 60007 91002 91103=
15480 22997 00000 10183 20152 30209 40225 57008 333 60007 91001 91101 92417=
15482 22997 01102 10223 20041 30159 40232 57010 333 60007 91003 91105=
15494 22997 01002 10220 20039 30188 40232 57012 333 60007 91004 91105=
15499 22997 00101 10177 20177 30215 40223 57005 333 55300 60007 91003 91105 92427=
15502 42970 00701 10210 20084 30191 40229 56008 333 10224 20042 555 544//=
15525 42980 00501 10194 20057 39964 40221 57006 333 10220 20080 555 541//=
15549 42970 03603 10190 20052 39818 40220 57001 333 10216 20090 555 540//=
15552 42960 01101 10216 20159 30173 40220 57005 333 10216 20136 555 570// 92014 92417=
15600 41989 03604 10072 20025 38384 48581 56004 70200 333 10140 20070 555 572//=
15614 42970 00201 10194 20029 39527 40205 57006 333 10220 20080 555 534//=
15615 41186 11102 10020 21027 37198 47152 54000 70100 81400 333 10050 21016 555 571//=
15640 42978 03203 10211 20119 39913 40213 57002 333 10240 20120 555 556//=
15655 42568 20704 10186 20141 30184 40216 57007 82501 333 10195 20122 555 575// 92035 92437=
15712 42680 11401 10244 20077 39953 40191 56008 81200 333 10255 20132 555 534//=
15730 42670 30204 10195 20112 39830 40212 56001 81181 333 10212 20085 555 559//=
16132 46/// ///// 10166 20136 30150 40209 57001 333 55000 20193 555 20171 3//56 4//// 5//// 1/132 21111 31111 411// 50011 61111 7////=
16271 46/// /0910 10213 20190 30163 40198 52001 333 55107 23230 555 20200 3//97 40910 50901 60812 79961 1/128 21111 31111 411// 51111 61111 7////=
16318 46/// /1804 10204 20186 39679 40198 57002 333 55107 20519 555 20216 3//10 41804 51401 61809 1/135 21111 31111 411// 51111 61111 7////=
16464 46/// /3604 10231 20184 30168 40172 57005 333 55000 21543 555 20230 3//// 43604 50701 60308 1/155 21111 31111 411// 51111 61101 7////=
17015 42670 60000 10193 20192 30186 40198 55003 84250 333 84835 86360 91103 92428=
17020 42670 72702 10194 20177 30154 40193 55000 83250 333 83834 87360 91106=
17031 42570 70603 10206 20180 30190 40196 55003 84250 333 84830 87360 91108=
17033 42670 60101 10209 20193 30192 40197 56004 83250 333 83834 86360 92428=
17040 42670 30000 10204 20192 30188 40198 55001 83200 333 83840 91103 92428=
17046 42970 00000 10129 21015 38250 48584 55001 333 91104=
17061 42670 50107 10182 20165 30133 40203 55002 84230 333 84835 85360 91110 92428=
17063 42460 70211 10187 20150 30085 40202 55002 87200 333 83716 86825 91116=
17064 42660 60202 10199 20141 30177 40198 55001 84230 333 84835 86359 91108=
17066 42660 60902 10192 20155 30109 40199 57005 84250 333 84840 86360 91106=
17072 42670 70103 10200 20164 30025 40196 53001 85250 333 85835 87360 91107=
17077 41658 63606 10206 20152 39622 40181 55002 71022 84250 333 84834 86360 91112=
17080 41665 43101 10209 20134 39304 40157 57007 70181 84200 333 84835 91105=
17089 42970 00802 10189 21006 38468 48552 55000 333 91109=
17094 42660 40000 10200 20056 38831 48541 55003 82230 333 82840 84360 91107=
17095 42570 31502 10157 21033 38187 48547 55003 83200 333 83830 91106=
17109 42970 33506 10206 20154 30163 40189 57007 83030 333 83359 91115=
17118 42560 63407 10188 20148 39915 40188 56002 84250 333 84830 86359 91113=
17119 42670 60501 10199 20167 30194 40199 56005 84250 333 84835 86360 91104 92417=
17127 41656 53501 10228 20091 39213 40162 57006 70522 83101 333 83833 84070 91108=
17131 41656 50905 10248 20079 39234 40154 56006 70622 83101 333 83835 85070=
17135 41957 50505 10248 20080 39297 40138 57011 70611 83036 333 83360 85270 91114=
17143 42660 21016 10205 20137 30168 40184 55001 82100 333 82835 91125=
17155 42570 50103 10210 20132 39079 40164 53001 85300 333 81930 84835 91111=
17165 42670 60501 10241 20042 39063 40139 55000 83251 333 83840 85360 86070=
17175 42965 00703 10225 20152 30162 40166 57008 333 91108 92427=
17185 41559 61116 10216 20077 39180 40174 53002 71711 86900 333 82922 84830 91026 91126 96016=
17189 42670 51004 10200 20074 39038 48517 55003 85200 333 85840 91116=
17191 42670 61006 10222 20089 39076 40149 53004 84250 333 84835 86360 91112=
17192 41675 60000 10175 20097 39092 40167 58001 70198 84250 333 84835 86360 91111=
17197 42960 20000 10238 20099 39124 40151 57006 82030 333 82360=
17208 42670 30000 10144 20017 38264 48559 56004 83200 333 83840 91107=
17221 42970 03405 10205 20163 30161 40167 57004 333 91112 92428=
17232 42670 33103 10215 20175 30134 40163 57004 81130 333 81835 83360 91109 92418=
17238 42670 40501 10224 20060 39071 40139 55002 82130 333 82835 84360 91106=
17239 42670 72201 10201 20104 39042 48523 55004 84250 333 84840 87360 91107=
17241 41570 70306 10227 20085 39173 40150 56003 71711 87900 333 82925 85835=
17242 41570 71602 10184 20121 38894 48524 53001 71700 86970 333 81925 85835 87360 91110=
17246 41670 70805 10175 20080 39024 48527 55003 72522 85250 333 85835 87360 91114=
17256 41522 51203 10273 20108 39540 40129 55006 70622 85200 333 85820 91112=
17257 41570 52710 10202 20133 39201 40163 55002 78000 85200 333 85830 91115=
17261 41643 50000 10237 20094 39206 40154 58004 70622 83150 333 83835 85360 91105=
17262 41640 60904 10268 20072 39420 40139 55003 70722 83230 333 83835 86360 91111=
17265 41960 20000 10263 20085 39391 40134 55006 70611 82030 333 82360 91106=
17271 42960 01406 10250 20077 39228 40131 55003 333 91116=
17287 42670 60806 10204 20054 38706 48562 52007 83250 333 83840 85360 91118=
17291 42660 12309 10231 20170 30144 40157 55001 81100 333 81835 91118=
17296 42970 02602 10245 20176 30141 40145 51001 333 91108 92408=
17297 42670 23109 10236 20138 30119 40152 57004 82200 333 82840 91116 92428=
17302 42570 51404 10260 20135 30082 40137 53001 82130 333 82830 85360 91108 92438=
17310 42670 52501 10254 20160 30133 40140 55000 85200 333 85835 91105 92438=
17355 42670 52307 10263 20200 30020 40134 55003 83250 333 83835 85360 91113=
17371 42970 02216 10258 20187 30044 40148 55007 333 91123=
17380 42970 00304 10245 20176 39957 40134 56004 333 91111 92428=
17501 42560 42714 10248 20174 30125 40143 55003 84200 333 81825 83830 92437=
17505 42560 40103 10245 20174 30047 40156 55001 84200 333 81825 83830=
17510 42560 50706 10253 20181 30136 40146 55003 85100 333 85825 92417=
17515 42560 42210 10241 20168 39991 40160 53002 84200 333 81825 83830=
17521 42560 42914 10248 20177 30004 40137 53001 84900 333 81925 83830=
17530 42560 41008 10262 20163 30095 40149 55000 84200 333 81825 83830=
17535 42560 20805 10262 20170 30104 40139 57004 82100 333 82825=
17540 42560 31206 10258 20183 30138 40161 55002 82101 333 82825 92427=
17547 42560 33206 10238 20180 39906 40140 57005 82101 333 82825 92427=
17550 42560 22806 10245 20174 30002 40141 55002 82100 333 82825 92437=
17572 42560 52805 10250 20178 30133 40157 55003 85100 333 85825 92417=



SMUS10 KWBC 161500
AAXX 16154
16008 42970 61706 10110 20051 38570 48529 56003 80001=
16020 42770 21906 10204 20108 39921 40196 57010 81104 333 81856=
16021 42580 51207 10072 20025 38040 48547 54000 83530 333 83630 83356=
16022 42580 62406 10067 20010 37916 48542 54000 81131 333 55300 81825 84356=
16033 42970 50000 10124 20069 38839 48552 56000 83038 333 83360=
16036 42764 71504 10200 20144 30066 40203 56004 81130 333 81850 86359=
16040 42865 70000 10140 20102 39310 42833 56005 87070 333 83357 84458=
16052 41584 79902 10010 21042 36691 47124 53006 72842 82031 333 55300 82330 444 46324=
16059 31959 89901 10192 20121 39853 40212 57005 71022 8507/ 333 85362 86365=
16061 41458 82003 10150 20150 39387 42834 56002 71022 8527/ 333 55300 85815 83357=
16064 42560 31503 10216 20119 39996 40200 57006 81130 333 55310 81830 83358=
16066 32972 /2005 10217 20099 39927 40206 57007=
16076 32960 21806 10205 20108 39923 40208 57004 80008 333 82270=
16080 32965 41604 10214 20117 30075 40205 57006 84050 333 84559=
16084 41550 81501 10174 20149 30034 40198 56002 71022 885// 333 55300 83630 85650=
16088 42760 61803 10204 20141 30089 40203 56003 86030 333 86356=
16098 42863 71104 10214 20138 30154 40204 56003 87030 333 83357 85359=
16099 32965 70902 10200 20133 30187 40209 57001 87039 333 87360=
16105 32970 40703 10198 20141 30206 40209 54000 84050 333 84662=
16108 32760 73602 10207 20134 30192 40206 57002 87520 333 85650 87257=
16110 42898 70000 10208 20160 30200 40204 54000 87070 333 55300 84357 84465 555 0100/=
16114 41432 82405 10132 20114 39563 42838 58004 75065 8572/ 333 85713 84450 90003=
16119 41456 83614 10148 20123 39629 40197 56002 71042 8323/ 333 83812 86357=
16120 41561 70108 10205 20126 30184 40188 58005 75152 87800 333 82820 87656 98561 555 0200/=
16125 41/57 91003 10204 20189 30177 40189 51005 72162 333 83630 85456=
16129 46/// ///// 1//// 2//// 39612 4//// 5//// 333 55107 2//// 555 2//// 3//// 4//// 5//// 60000 1/126 20111 31111 411// 50000 60000 7//// 3/135=
16134 41/00 90812 10062 20053 37877 48546 58001 76365 333 55300 89/00 95090 95190 96045=
16138 42662 73600 10190 20127 30196 40207 56002 87500 333 87635=
16140 31540 82606 10166 20142 30161 40207 57001 71022 886// 333 87722 84630=
16148 42762 80808 10198 20164 30185 40197 56001 8653/ 333 55300 86650=
16149 31450 70706 10198 20180 30179 40194 57004 75162 84870 333 84813 86356=
16153 41598 81208 10182 20115 39930 40190 55002 72162 8357/ 333 55300 83620 83358 555 0312/=
16154 89664 42561 70611 11238 21298 39797 49842 56045 87500 333 56800 87620=
16158 41865 80202 10192 20175 30180 40187 51007 72162 8807/ 333 55300 85357 85460=
16168 41/00 91518 10176 20173 39436 42800 58004 76094 333 89/00=
16170 31765 80206 10219 20147 30128 40180 52004 76111 86510 333 86650 87459=
16172 42667 81103 10210 20149 39897 40186 54000 8267/ 333 82740 86357=
16179 41458 70905 10162 20146 39512 42810 54000 71022 87800 333 83810 84640=
16197 41257 81105 10180 20170 39700 40158 54000 76065 888// 333 55300 85805 86615=
16204 41557 80000 10158 20120 39278 42853 54000 76062 885// 333 88622 95055=
16206 41559 80603 10200 20170 30160 40168 58002 76062 8387/ 333 82820 83630 85462=
16214 41597 71509 10224 20184 30155 40171 53003 76062 84970 333 55300 20461 81820 81923 83630 555 0300/=
16216 41456 80000 10176 20156 39817 40176 53006 76162 85875 333 55300 81818 83830 85356=
16224 41460 71805 10203 20153 39866 40174 53004 70162 85870 333 55300 20129 83817 84630=
16230 31356 80403 10201 20176 30178 40196 57001 71000 875// 333 87610=
16232 41497 83205 10212 20195 30134 40186 57004 76062 887// 333 55300 84710 85815 555 0118/=
16234 42662 70904 10220 20169 30071 40175 53001 84520 333 84640 84458=
16239 32670 71707 10227 20152 30018 40174 52004 83252 333 83845 86365=
16242 42775 61412 10231 20173 30168 40172 53004 83245 333 83656 84360 87271=
16243 42568 71508 10230 20146 30138 40169 51003 82130 333 82825 85357=
16244 42663 71804 10220 20156 39951 40166 53000 84130 333 84835 84356=
16245 42770 71412 10230 20198 30140 40165 54000 83230 333 83656 85360=
16252 42460 80605 10160 20155 39275 42830 56005 8423/ 333 55300 81810 83815 85357=
16253 42575 72209 10234 20169 30155 40167 55001 83230 333 55306 83825 84357=
16258 41/00 91409 10144 20136 39220 42820 57001 74564 333 89/00=
16261 42560 70812 10210 20186 30110 40181 56004 82830 333 55300 82830 84656 86365=
16263 41/00 91106 10140 20117 38953 48527 53001 76364 333 89/00=
16270 42563 61007 10207 20175 30128 40192 52001 83220 333 82825 86459=
16280 42498 61109 10208 20205 39941 40156 58001 82110 333 55304 82815 84458 555 0423/=
16289 42765 22005 10236 20147 30095 40175 52003 82400 333 82650=
16294 42998 41802 10230 20172 39990 40176 57002 84030 333 84359 555 0113/=
16310 42998 51506 10240 20199 39952 40165 51001 80001 333 55310 555 0100/=
16312 41457 61709 10204 20178 39779 40184 58005 71022 82630 333 82710 85360=
16316 41220 81002 10164 20154 39178 42830 53000 76062 882// 333 82703 83806 85813 95086 90006=
16320 32460 21308 10225 20165 30174 40191 57003 82800 333 82220=
16325 42497 61608 10230 20192 30164 40178 56004 82101 333 82812 98068 555 0223/=
16332 42660 41509 10228 20181 30131 40193 58005 82130 333 82840 83360=
16337 42597 30508 10212 20164 39612 40163 58001 83500 333 83623 555 0216/=
16344 41/00 92504 10122 20116 38348 48526 54000 74542 333 55300 89/00 95090 95190=
16360 42597 51308 10210 20189 30061 40192 56002 85200 333 55305 85820 555 0313/=
16400 42498 71516 10224 20221 39882 40161 5//// 86230 333 55302 86816 555 0213/=
16405 31560 60805 10227 20201 30133 40157 52004 78181 86200 333 82825 84845=
16420 42598 62207 10230 20194 30100 40163 58002 82576 333 55301 82625 555 0200/=
16429 42468 61416 10238 20205 30141 40152 51001 84970 333 55300 82918 83625 85358=
16450 42262 79901 10166 20143 39028 48511 55002 84270 333 81806 83808 85357=
16453 42797 52004 10230 20177 30080 40160 56008 82205 333 55310 82650 555 0100/=
16459 41759 70808 10266 20261 30132 40166 56006 71022 87060 333 84356 87362=
16460 32960 80906 10231 20179 30155 40169 57003 80007 333 88283=
16470 41458 71612 10206 20184 39915 40145 53001 79596 87300 333 55300 22/// 82910 83815 95010=
16480 42998 61203 10238 20199 30090 40150 57010 80006 333 55310 555 0213/=
16520 32675 60307 10230 20157 30115 40147 57002 82236 333 82835 83357 86074=
16522 42598 53503 10224 20180 39908 40143 58003 83201 333 55310 83820 555 0200/=
16531 32665 40905 10222 20185 30142 40155 52006 84800 333 84825=
16539 42598 53008 10228 20207 30028 40138 55002 81201 333 81825 555 0299/=
16546 42470 51608 10240 20209 30110 40137 54000 82311 333 82918 83640=
16550 42598 51103 10230 20192 39969 40142 58003 82209 333 55310 82830 555 0200/=
16560 32575 51607 10234 20183 30140 40144 57004 84230 333 84830 84368=
16564 42497 70615 10224 20188 30004 40141 56000 83870 333 82816 83630 85357 555 0200/=
16597 32570 20906 10236 20184 30056 40161 55007 81101 333 60007 81823 91113 91211=
16606 46/// /0000 10236 20066 30160 40196 57010 333 91107=
16613 46/// /1604 10213 20095 39490 40195 57004 333 91110=
16614 46/// /9902 10205 20064 39449 40197 57015 333 91109=
16622 42560 12106 10232 20099 30201 40202 57010 81100 333 91111=
16624 42960 02505 10212 20132 30195 40202 57007 333 91112 555 40000 47683 44260 50000 50166=
16627 42960 00412 10224 20109 30194 40199 55004 333 91120 555 40000 47680 44250 50000 50160=
16641 42560 20000 10244 20131 30191 40196 58003 81101 333 91105 555 40000 47677 44230 50000 50178=
16642 42560 2//// 10224 20131 40180 58007 82100 555 40000 47255 44210 50000 50170=
16643 42580 13008 10238 20160 30196 40200 56002 81101 333 91114 555 40000 47682 44240 50000 50190=
16648 42560 10000 10232 20117 30121 40200 57009 81100 333 91109=
16650 42965 00108 10198 20131 30199 40200 58006 333 91118=
16667 42960 03206 10220 20146 30176 40182 58006 333 91116 555 40000 47667 44240 50000 50176=
16675 46/// /9903 10214 20134 30191 40205 57003 333 91111=
16682 42560 22705 10228 20130 30180 40190 57005 81150 333 91110=
16684 42560 23411 10192 20125 30181 40204 57007 82101 333 91116=
16685 42460 60000 10226 20181 40196 56001 82130 333 82818 86357 91112 555 40000 47659 44235 50000 50198=
16706 42560 30208 10220 20153 40167 58005 81105 333 81825 83068 91116 555 40000 47656 44240 50000 50180=
16710 46/// /1307 10180 20108 39447 40196 57004 333 91112=
16715 42560 20106 10200 20124 40194 57001 82400 333 91118=
16716 46/// /9903 10224 20117 30143 40192 57004 333 91109=
16718 42560 13308 10222 20132 40195 57004 81100 333 91118=
16723 42960 40304 10240 20138 30142 40155 56004 80001 333 91115 555 40000 47645 44270 50000 50180=
16726 42560 21605 10230 20129 40188 57002 82240 333 91109=
16732 46/// /3619 10195 20165 30174 40185 54000 333 91127=
16734 46/// /9903 10226 2//// 30133 40192 57001 333 91109=
16738 46/// /0208 10191 20139 39997 40192 54000 333 91119=
16746 42560 50104 10198 20165 30007 40182 57004 85800 333 82820 85630 91111 555 40000 47538 44215 50000 50178=
16749 42960 22514 10238 20181 30139 40153 56003 80001 333 91118 555 40000 47643 44270 50000 50202=
16754 42560 23209 10222 20177 30136 40182 58009 82200 333 91115 555 40000 47639 44240 50000 50194=
16757 42560 52915 10202 20160 40179 57004 84540 333 91122=
16760 42560 33411 10194 20152 40189 57003 83500 333 91116=
16765 42460 33119 10220 20167 40163 57006 82441 333 91128=
17022 42667 72001 10186 20151 30041 40203 57003 83270 333 83835 87360 91105 92427=
17024 42465 62701 10201 20175 30115 40191 56005 83650 333 83712 86360 91104 92427=
17026 42570 51003 10221 20203 30149 40187 56005 83250 333 83827 85357 91108 92418=
17030 42670 71302 10213 20186 30193 40198 55005 84250 333 84836 87360 91109 92428=
17034 42670 70000 10213 20169 30156 40201 56005 83250 333 83835 87360 91104 92428=
17038 42670 30902 10208 20179 30150 40196 55003 83100 333 83835 91107 92418=
17042 42970 01102 10179 20177 30164 40203 56003 333 91105 92428=
17045 42970 01901 10199 20074 39477 40195 53002 333 91105=
17050 42970 00105 10220 20100 30142 40203 55001 333 91110=
17052 42970 00803 10178 20116 39936 40211 53001 333 91110=
17056 42970 20610 10195 20144 30208 40212 53001 82030 333 82360 91114 92438=
17059 42670 60105 10187 20168 30158 40203 56003 84250 333 84835 86360 91111 92428=
17060 42460 70110 10196 20153 30169 40208 56002 87200 333 82717 86825 91119=
17068 41458 70403 10188 20158 30120 40203 57005 71022 87500 333 83712 87623 91114=
17069 42670 70103 10197 20154 30157 40193 57004 84250 333 84840 86360 91108=
17070 42565 72502 10147 20135 39340 40192 53001 84250 333 84830 86360 91110=
17074 41630 81302 10181 20130 39267 40181 55003 70622 8452/ 333 84635 88460 91103=
17082 42560 30318 10192 20125 39562 40167 55000 83100 333 83830 91127=
17084 42970 20707 10218 20124 39281 40157 55000 82030 333 82360 91113=
17085 41656 60312 10232 20133 39687 40160 55007 70622 84250 333 84840 86360 91121=
17086 41659 71007 10231 20126 39461 40149 55002 70622 85250 333 85835 87360 91115=
17088 42970 02206 10219 20005 38841 48552 53002 333 91111=
17090 42665 52801 10217 20035 38752 48532 55002 85200 333 85840=
17092 42770 40505 10202 20066 38896 48538 55004 83250 333 83850 84360 91110=
17096 42660 21305 10151 21013 38295 48555 55001 82100 333 82835 91109=
17098 42960 01008 10123 20014 38263 48566 55002 333 91113=
17099 42970 00402 10169 21022 38412 48545 53001 333 91110=
17100 42970 00201 10173 20072 39226 40207 55005 333 91106=
17112 42665 20605 10210 20127 30189 40191 55004 82200 333 82835 91121 92417=
17115 42460 50313 10186 20153 30156 40206 55001 85200 333 81715 85835 91120=
17116 42660 60108 10200 20146 30072 40190 56003 84250 333 84835 86360 91113=
17120 42970 42804 10172 20131 39563 40185 55001 84050 333 84359 91110=
17124 42960 03509 10208 20114 39276 40164 55008 333 91117=
17128 41658 40807 10234 20054 39098 40162 57006 70611 84200 333 84840 91112=
17129 41646 42605 10231 20099 39250 40162 57006 70522 83101 333 83835 83070 91107=
17130 41658 50803 10236 20075 39157 40147 56005 70622 82101 333 82840 85070 91108=
17140 41665 73302 10194 20095 38738 48532 53002 71722 84950 333 82933 84835 87360 91111=
17150 42660 33611 10197 20132 30075 40195 53003 83100 333 83835 91121=
17160 41958 31101 10218 20103 39025 48519 55003 70600 83030 333 83360 91105=
17170 42660 20000 10122 20075 38378 48545 55001 82100 333 82835 91104=
17180 42967 02804 10209 20167 30168 40172 56004 333 91112 92417=
17184 42970 03406 10226 20142 30055 40163 53001 333 91113=
17186 42970 02704 10247 20151 30073 40156 55006 333 91107=
17193 42670 42104 10177 20081 38788 48540 53006 84200 333 84835 91116=
17195 41560 62504 10202 20038 38986 48526 53004 72991 86900 333 81930 85835 91118 96006=
17200 42660 62703 10230 20108 39208 40161 56008 84250 333 84840 86360 91109=
17202 42660 40703 10248 20055 39148 40144 55005 82101 333 82835 84070 91110=
17203 42670 60000 10211 20047 38908 48575 53001 84250 333 84840 86360 91106=
17204 42670 52102 10189 20042 38727 48545 55003 85200 333 85835 91106=
17210 42670 30402 10255 20025 39160 40144 53002 83100 333 83840=
17218 42660 33110 10221 20146 30168 40174 52003 81101 333 81840 83070 91120=
17219 42965 43519 10216 20146 30024 40165 56002 80001 333 84070 91126=
17220 42970 02508 10214 20158 30134 40168 54000 333 91117 92438=
17234 42670 22403 10229 20160 30080 40146 55003 82100 333 82840 91110=
17237 42670 32202 10237 20120 39635 40121 55007 83200 333 83840 91105=
17240 41570 62104 10196 20100 39045 40166 53001 72991 86900 333 81925 85830 91110=
17244 42670 51210 10208 20080 39015 48531 55000 83230 333 83840 84360 91115=
17248 41560 61304 10182 20069 39010 48531 55001 78082 86200 333 86830 91113=
17250 42670 52601 10180 20048 38834 48536 55006 83250 333 83840 85360 91113=
17260 41428 40000 10255 20106 39353 40130 56006 70600 84200 333 82715 84833 91113=
17270 41659 31001 10264 20104 39517 40130 56004 70600 81130 333 81840 83360 91110=
17275 42970 71306 10246 20054 39010 48555 52003 84044 333 84360 87068 91115=
17280 42960 30000 10256 20055 39381 40137 55004 83030 333 83360 91108=
17282 42670 41601 10264 20076 39450 40138 55003 82230 333 82840 83360 91107=
17285 42670 60000 10166 20049 38322 48565 55001 83230 333 83840 86360 91106=
17290 42970 03005 10239 20152 30126 40157 56003 333 91115 92428=
17292 42670 43203 10227 20129 39417 40147 56002 82101 333 82840 84070 91107=
17295 42560 22507 10252 20165 30144 40151 56002 82100 333 82830 91119=
17298 42970 52803 10236 20165 30132 40151 56002 80001 333 85070 91110 92418=
17300 42560 51503 10255 20155 30080 40149 52004 81101 333 81830 85070 91113=
17320 42970 51801 10263 20164 30138 40143 55000 80001 333 85070 92428=
17330 42970 30000 10267 20176 30122 40139 57004 80001 333 83070=
17340 42670 62301 10265 20187 30131 40139 55004 83250 333 83835 86360 92428=
17350 42960 62005 10266 20195 30057 40132 55003 86030 333 86360=
17352 42660 42108 10264 20199 30109 40133 55003 81130 333 81840 84360=
17370 42665 62302 10266 20198 30134 40138 56005 83230 333 83835 86360 91107 92427=
17375 42970 03502 10265 20136 30127 40129 56003 333 91113 92418=
17600 42565 33010 10246 20173 30139 40148 55000 82802 333 81825=
17601 42881 22611 10246 20172 30112 40142 56003 81503 91450 333 55304 2//// 81657=
17609 42575 72408 10260 20184 30139 40142 55000 84802 333 81820 84640 85075=